sensor_id;sensor_type;location;lat;lon;timestamp;pressure;altitude;pressure_sealevel;temperature;humidity
11017;BME280;54687;50.800;6.772;2023-01-29T00:01:08;61214.50;;;-144.06;62.54
11017;BME280;54687;50.800;6.772;2023-01-29T00:03:35;61243.84;;;-144.06;62.30
11017;BME280;54687;50.800;6.772;2023-01-29T00:06:05;61271.09;;;-144.06;62.02
11017;BME280;54687;50.800;6.772;2023-01-29T00:08:32;61208.22;;;-144.06;61.80
11017;BME280;54687;50.800;6.772;2023-01-29T00:11:02;61239.66;;;-144.06;62.00
11017;BME280;54687;50.800;6.772;2023-01-29T00:13:34;61220.78;;;-144.06;62.32
11017;BME280;54687;50.800;6.772;2023-01-29T00:16:01;61227.06;;;-144.06;62.09
11017;BME280;54687;50.800;6.772;2023-01-29T00:18:28;61227.06;;;-144.06;61.90
11017;BME280;54687;50.800;6.772;2023-01-29T00:20:55;61220.78;;;-144.06;62.04
11017;BME280;54687;50.800;6.772;2023-01-29T00:23:23;61239.66;;;-144.06;62.07
11017;BME280;54687;50.800;6.772;2023-01-29T00:25:49;61248.03;;;-144.06;61.99
11017;BME280;54687;50.800;6.772;2023-01-29T00:28:16;61206.09;;;-144.06;61.87
11017;BME280;54687;50.800;6.772;2023-01-29T00:30:43;61294.16;;;-144.06;62.16
11017;BME280;54687;50.800;6.772;2023-01-29T00:33:09;61216.59;;;-144.06;62.31
11017;BME280;54687;50.800;6.772;2023-01-29T00:35:39;61245.94;;;-144.06;62.51
11017;BME280;54687;50.800;6.772;2023-01-29T00:38:06;61216.59;;;-144.06;62.29
11017;BME280;54687;50.800;6.772;2023-01-29T00:40:36;61239.66;;;-144.06;62.59
11017;BME280;54687;50.800;6.772;2023-01-29T00:43:17;61231.25;;;-144.06;62.54
11017;BME280;54687;50.800;6.772;2023-01-29T00:46:01;61222.88;;;-144.06;62.38
11017;BME280;54687;50.800;6.772;2023-01-29T00:48:27;61210.31;;;-144.06;62.39
11017;BME280;54687;50.800;6.772;2023-01-29T00:50:54;61220.78;;;-144.06;62.62
11017;BME280;54687;50.800;6.772;2023-01-29T00:53:20;61243.84;;;-144.06;62.37
11017;BME280;54687;50.800;6.772;2023-01-29T00:55:48;61256.41;;;-144.06;62.53
11017;BME280;54687;50.800;6.772;2023-01-29T00:58:15;61206.09;;;-144.06;61.97
11017;BME280;54687;50.800;6.772;2023-01-29T01:00:46;61245.94;;;-144.06;62.57
11017;BME280;54687;50.800;6.772;2023-01-29T01:03:13;61206.09;;;-144.06;62.42
11017;BME280;54687;50.800;6.772;2023-01-29T01:05:39;61239.66;;;-144.06;62.44
11017;BME280;54687;50.800;6.772;2023-01-29T01:08:07;61264.81;;;-144.06;62.30
11017;BME280;54687;50.800;6.772;2023-01-29T01:11:00;61250.13;;;-144.06;62.51
11017;BME280;54687;50.800;6.772;2023-01-29T01:13:26;61235.47;;;-144.06;62.61
11017;BME280;54687;50.800;6.772;2023-01-29T01:15:53;61201.91;;;-144.06;62.29
11017;BME280;54687;50.800;6.772;2023-01-29T01:18:19;61252.22;;;-144.06;62.91
11017;BME280;54687;50.800;6.772;2023-01-29T01:20:55;61197.72;;;-144.06;62.58
11017;BME280;54687;50.800;6.772;2023-01-29T01:23:24;61220.78;;;-144.06;62.46
11017;BME280;54687;50.800;6.772;2023-01-29T01:25:52;61214.50;;;-144.06;62.91
11017;BME280;54687;50.800;6.772;2023-01-29T01:28:20;61266.91;;;-144.06;63.15
11017;BME280;54687;50.800;6.772;2023-01-29T01:30:46;61254.31;;;-144.06;63.00
11017;BME280;54687;50.800;6.772;2023-01-29T01:33:13;61243.84;;;-144.06;62.70
11017;BME280;54687;50.800;6.772;2023-01-29T01:35:39;61256.41;;;-144.06;62.89
11017;BME280;54687;50.800;6.772;2023-01-29T01:38:06;61201.91;;;-144.06;62.70
11017;BME280;54687;50.800;6.772;2023-01-29T01:40:33;61260.63;;;-144.06;62.46
11017;BME280;54687;50.800;6.772;2023-01-29T01:43:00;61212.41;;;-144.06;62.54
11017;BME280;54687;50.800;6.772;2023-01-29T01:45:29;61235.47;;;-144.06;62.55
11017;BME280;54687;50.800;6.772;2023-01-29T01:47:58;61227.06;;;-144.06;62.81
11017;BME280;54687;50.800;6.772;2023-01-29T01:50:32;61227.06;;;-144.06;62.76
11017;BME280;54687;50.800;6.772;2023-01-29T01:53:03;61262.72;;;-144.06;62.64
11017;BME280;54687;50.800;6.772;2023-01-29T01:55:33;61252.22;;;-144.06;62.79
11017;BME280;54687;50.800;6.772;2023-01-29T01:58:05;61208.22;;;-144.06;62.78
11017;BME280;54687;50.800;6.772;2023-01-29T02:00:37;61239.66;;;-144.06;63.14
11017;BME280;54687;50.800;6.772;2023-01-29T02:03:05;61269.00;;;-144.06;63.16
11017;BME280;54687;50.800;6.772;2023-01-29T02:05:52;61256.41;;;-144.06;62.91
11017;BME280;54687;50.800;6.772;2023-01-29T02:08:41;61243.84;;;-144.06;63.03
11017;BME280;54687;50.800;6.772;2023-01-29T02:11:27;61243.84;;;-144.06;63.18
11017;BME280;54687;50.800;6.772;2023-01-29T02:13:54;61252.22;;;-144.06;62.77
11017;BME280;54687;50.800;6.772;2023-01-29T02:16:22;61258.53;;;-144.06;62.67
11017;BME280;54687;50.800;6.772;2023-01-29T02:18:49;61210.31;;;-144.06;62.77
11017;BME280;54687;50.800;6.772;2023-01-29T02:21:24;61254.31;;;-144.06;63.05
11017;BME280;54687;50.800;6.772;2023-01-29T02:24:10;61214.50;;;-144.06;63.16
11017;BME280;54687;50.800;6.772;2023-01-29T02:26:49;61193.53;;;-144.06;63.01
11017;BME280;54687;50.800;6.772;2023-01-29T02:29:22;61220.78;;;-144.06;62.68
11017;BME280;54687;50.800;6.772;2023-01-29T02:32:00;61243.84;;;-144.06;62.64
11017;BME280;54687;50.800;6.772;2023-01-29T02:34:39;61235.47;;;-144.06;63.21
11017;BME280;54687;50.800;6.772;2023-01-29T02:37:32;61199.81;;;-144.06;62.88
11017;BME280;54687;50.800;6.772;2023-01-29T02:40:10;61243.84;;;-144.06;63.03
11017;BME280;54687;50.800;6.772;2023-01-29T02:42:43;61231.25;;;-144.06;63.18
11017;BME280;54687;50.800;6.772;2023-01-29T02:45:17;61176.75;;;-144.06;63.06
11017;BME280;54687;50.800;6.772;2023-01-29T02:47:47;61201.91;;;-144.06;63.24
11017;BME280;54687;50.800;6.772;2023-01-29T02:50:19;61256.41;;;-144.06;63.13
11017;BME280;54687;50.800;6.772;2023-01-29T02:52:51;61248.03;;;-144.06;63.08
11017;BME280;54687;50.800;6.772;2023-01-29T02:55:24;61201.91;;;-144.06;62.91
11017;BME280;54687;50.800;6.772;2023-01-29T02:57:55;61206.09;;;-144.06;63.35
11017;BME280;54687;50.800;6.772;2023-01-29T03:00:26;61252.22;;;-144.06;63.20
11017;BME280;54687;50.800;6.772;2023-01-29T03:02:58;61243.84;;;-144.06;63.48
11017;BME280;54687;50.800;6.772;2023-01-29T03:05:31;61264.81;;;-144.06;63.42
11017;BME280;54687;50.800;6.772;2023-01-29T03:08:01;61227.06;;;-144.06;63.16
11017;BME280;54687;50.800;6.772;2023-01-29T03:10:33;61206.09;;;-144.06;63.04
11017;BME280;54687;50.800;6.772;2023-01-29T03:13:04;61243.84;;;-144.06;63.60
11017;BME280;54687;50.800;6.772;2023-01-29T03:15:40;61229.16;;;-144.06;63.41
11017;BME280;54687;50.800;6.772;2023-01-29T03:18:13;61237.56;;;-144.06;63.39
11017;BME280;54687;50.800;6.772;2023-01-29T03:20:43;61254.31;;;-144.06;63.40
11017;BME280;54687;50.800;6.772;2023-01-29T03:23:18;61206.09;;;-144.06;63.31
11017;BME280;54687;50.800;6.772;2023-01-29T03:25:49;61214.50;;;-144.06;63.76
11017;BME280;54687;50.800;6.772;2023-01-29T03:28:35;61214.50;;;-144.06;63.63
11017;BME280;54687;50.800;6.772;2023-01-29T03:31:22;61222.88;;;-144.06;63.44
11017;BME280;54687;50.800;6.772;2023-01-29T03:34:12;61210.31;;;-144.06;63.50
11017;BME280;54687;50.800;6.772;2023-01-29T03:36:45;61235.47;;;-144.06;63.45
11017;BME280;54687;50.800;6.772;2023-01-29T03:39:20;61222.88;;;-144.06;63.31
11017;BME280;54687;50.800;6.772;2023-01-29T03:41:53;61189.34;;;-144.06;63.49
11017;BME280;54687;50.800;6.772;2023-01-29T03:44:29;61231.25;;;-144.06;63.30
11017;BME280;54687;50.800;6.772;2023-01-29T03:47:08;61214.50;;;-144.06;63.45
11017;BME280;54687;50.800;6.772;2023-01-29T03:49:48;61218.69;;;-144.06;63.25
11017;BME280;54687;50.800;6.772;2023-01-29T03:52:20;61254.31;;;-144.06;62.86
11017;BME280;54687;50.800;6.772;2023-01-29T03:54:58;61243.84;;;-144.06;63.43
11017;BME280;54687;50.800;6.772;2023-01-29T03:57:34;61239.66;;;-144.06;62.84
11017;BME280;54687;50.800;6.772;2023-01-29T04:00:07;61187.25;;;-144.06;62.90
11017;BME280;54687;50.800;6.772;2023-01-29T04:02:42;61248.03;;;-144.06;62.61
11017;BME280;54687;50.800;6.772;2023-01-29T04:05:17;61214.50;;;-144.06;62.58
11017;BME280;54687;50.800;6.772;2023-01-29T04:07:47;61243.84;;;-144.06;62.84
11017;BME280;54687;50.800;6.772;2023-01-29T04:10:20;61214.50;;;-144.06;62.37
11017;BME280;54687;50.800;6.772;2023-01-29T04:12:50;61224.97;;;-144.06;62.91
11017;BME280;54687;50.800;6.772;2023-01-29T04:15:19;61201.91;;;-144.06;62.74
11017;BME280;54687;50.800;6.772;2023-01-29T04:17:50;61231.25;;;-144.06;62.96
11017;BME280;54687;50.800;6.772;2023-01-29T04:20:19;61231.25;;;-144.06;62.50
11017;BME280;54687;50.800;6.772;2023-01-29T04:22:47;61214.50;;;-144.06;62.66
11017;BME280;54687;50.800;6.772;2023-01-29T04:25:16;61212.41;;;-144.06;62.61
11017;BME280;54687;50.800;6.772;2023-01-29T04:27:56;61201.91;;;-144.06;62.86
11017;BME280;54687;50.800;6.772;2023-01-29T04:30:30;61222.88;;;-144.06;62.91
11017;BME280;54687;50.800;6.772;2023-01-29T04:33:10;61220.78;;;-144.06;62.93
11017;BME280;54687;50.800;6.772;2023-01-29T04:35:51;61210.31;;;-144.06;62.68
11017;BME280;54687;50.800;6.772;2023-01-29T04:38:24;61248.03;;;-144.06;62.92
11017;BME280;54687;50.800;6.772;2023-01-29T04:41:02;61260.63;;;-144.06;62.69
11017;BME280;54687;50.800;6.772;2023-01-29T04:43:36;61239.66;;;-144.06;62.45
11017;BME280;54687;50.800;6.772;2023-01-29T04:46:12;61222.88;;;-144.06;63.20
11017;BME280;54687;50.800;6.772;2023-01-29T04:48:57;61201.91;;;-144.06;63.08
11017;BME280;54687;50.800;6.772;2023-01-29T04:51:33;61218.69;;;-144.06;62.59
11017;BME280;54687;50.800;6.772;2023-01-29T04:54:06;61193.53;;;-144.06;62.56
11017;BME280;54687;50.800;6.772;2023-01-29T04:56:47;61250.13;;;-144.06;62.39
11017;BME280;54687;50.800;6.772;2023-01-29T04:59:18;61231.25;;;-144.06;62.15
11017;BME280;54687;50.800;6.772;2023-01-29T05:01:47;61201.91;;;-144.06;62.79
11017;BME280;54687;50.800;6.772;2023-01-29T05:04:17;61214.50;;;-144.06;62.12
11017;BME280;54687;50.800;6.772;2023-01-29T05:06:45;61229.16;;;-144.06;62.23
11017;BME280;54687;50.800;6.772;2023-01-29T05:09:12;61245.94;;;-144.06;62.66
11017;BME280;54687;50.800;6.772;2023-01-29T05:11:40;61206.09;;;-144.06;62.64
11017;BME280;54687;50.800;6.772;2023-01-29T05:14:10;61239.66;;;-144.06;62.35
11017;BME280;54687;50.800;6.772;2023-01-29T05:16:40;61180.97;;;-144.06;62.47
11017;BME280;54687;50.800;6.772;2023-01-29T05:19:08;61222.88;;;-144.06;62.58
11017;BME280;54687;50.800;6.772;2023-01-29T05:21:37;61235.47;;;-144.06;62.68
11017;BME280;54687;50.800;6.772;2023-01-29T05:24:07;61231.25;;;-144.06;62.34
11017;BME280;54687;50.800;6.772;2023-01-29T05:26:34;61180.97;;;-144.06;62.88
11017;BME280;54687;50.800;6.772;2023-01-29T05:29:19;61189.34;;;-144.06;62.59
11017;BME280;54687;50.800;6.772;2023-01-29T05:31:46;61227.06;;;-144.06;62.65
11017;BME280;54687;50.800;6.772;2023-01-29T05:34:13;61180.97;;;-144.06;62.41
11017;BME280;54687;50.800;6.772;2023-01-29T05:36:40;61248.03;;;-144.06;62.00
11017;BME280;54687;50.800;6.772;2023-01-29T05:39:07;61224.97;;;-144.06;62.04
11017;BME280;54687;50.800;6.772;2023-01-29T05:41:34;61206.09;;;-144.06;62.31
11017;BME280;54687;50.800;6.772;2023-01-29T05:44:00;61237.56;;;-144.06;62.49
11017;BME280;54687;50.800;6.772;2023-01-29T05:46:27;61210.31;;;-144.06;62.34
11017;BME280;54687;50.800;6.772;2023-01-29T05:48:53;61229.16;;;-144.06;62.25
11017;BME280;54687;50.800;6.772;2023-01-29T05:51:20;61218.69;;;-144.06;61.95
11017;BME280;54687;50.800;6.772;2023-01-29T05:53:48;61231.25;;;-144.06;62.22
11017;BME280;54687;50.800;6.772;2023-01-29T05:56:14;61229.16;;;-144.06;61.92
11017;BME280;54687;50.800;6.772;2023-01-29T05:58:41;61229.16;;;-144.06;61.60
11017;BME280;54687;50.800;6.772;2023-01-29T06:01:09;61218.69;;;-144.06;61.51
11017;BME280;54687;50.800;6.772;2023-01-29T06:03:36;61227.06;;;-144.06;61.63
11017;BME280;54687;50.800;6.772;2023-01-29T06:06:03;61233.38;;;-144.06;61.71
11017;BME280;54687;50.800;6.772;2023-01-29T06:08:29;61264.81;;;-144.06;61.54
11017;BME280;54687;50.800;6.772;2023-01-29T06:10:57;61224.97;;;-144.06;61.59
11017;BME280;54687;50.800;6.772;2023-01-29T06:13:24;61235.47;;;-144.06;62.05
11017;BME280;54687;50.800;6.772;2023-01-29T06:15:50;61180.97;;;-144.06;61.64
11017;BME280;54687;50.800;6.772;2023-01-29T06:18:17;61250.13;;;-144.06;61.66
11017;BME280;54687;50.800;6.772;2023-01-29T06:20:44;61195.63;;;-144.06;62.03
11017;BME280;54687;50.800;6.772;2023-01-29T06:23:10;61260.63;;;-144.06;61.74
11017;BME280;54687;50.800;6.772;2023-01-29T06:25:37;61243.84;;;-144.06;62.22
11017;BME280;54687;50.800;6.772;2023-01-29T06:28:05;61222.88;;;-144.06;61.91
11017;BME280;54687;50.800;6.772;2023-01-29T06:30:31;61214.50;;;-144.06;62.16
11017;BME280;54687;50.800;6.772;2023-01-29T06:32:58;61206.09;;;-144.06;62.12
11017;BME280;54687;50.800;6.772;2023-01-29T06:35:26;61204.00;;;-144.06;61.86
11017;BME280;54687;50.800;6.772;2023-01-29T06:37:53;61220.78;;;-144.06;62.22
11017;BME280;54687;50.800;6.772;2023-01-29T06:40:21;61206.09;;;-144.06;62.43
11017;BME280;54687;50.800;6.772;2023-01-29T06:42:47;61231.25;;;-144.06;62.60
11017;BME280;54687;50.800;6.772;2023-01-29T06:45:15;61231.25;;;-144.06;62.29
11017;BME280;54687;50.800;6.772;2023-01-29T06:47:42;61231.25;;;-144.06;62.45
11017;BME280;54687;50.800;6.772;2023-01-29T06:50:10;61208.22;;;-144.06;62.10
11017;BME280;54687;50.800;6.772;2023-01-29T06:52:37;61204.00;;;-144.06;62.14
11017;BME280;54687;50.800;6.772;2023-01-29T06:55:04;61206.09;;;-144.06;61.83
11017;BME280;54687;50.800;6.772;2023-01-29T06:57:31;61218.69;;;-144.06;61.82
11017;BME280;54687;50.800;6.772;2023-01-29T06:59:57;61218.69;;;-144.06;61.60
11017;BME280;54687;50.800;6.772;2023-01-29T07:02:25;61210.31;;;-144.06;61.41
11017;BME280;54687;50.800;6.772;2023-01-29T07:04:52;61231.25;;;-144.06;61.55
11017;BME280;54687;50.800;6.772;2023-01-29T07:07:18;61216.59;;;-144.06;62.10
11017;BME280;54687;50.800;6.772;2023-01-29T07:09:45;61258.53;;;-144.06;61.77
11017;BME280;54687;50.800;6.772;2023-01-29T07:12:11;61218.69;;;-144.06;61.69
11017;BME280;54687;50.800;6.772;2023-01-29T07:14:38;61224.97;;;-144.06;61.99
11017;BME280;54687;50.800;6.772;2023-01-29T07:17:05;61193.53;;;-144.06;61.78
11017;BME280;54687;50.800;6.772;2023-01-29T07:19:33;61248.03;;;-144.06;61.38
11017;BME280;54687;50.800;6.772;2023-01-29T07:21:59;61231.25;;;-144.06;61.02
11017;BME280;54687;50.800;6.772;2023-01-29T07:24:26;61214.50;;;-144.06;61.39
11017;BME280;54687;50.800;6.772;2023-01-29T07:26:53;61183.06;;;-144.06;60.92
11017;BME280;54687;50.800;6.772;2023-01-29T07:29:19;61231.25;;;-144.06;60.61
11017;BME280;54687;50.800;6.772;2023-01-29T07:31:46;61168.38;;;-144.06;60.42
11017;BME280;54687;50.800;6.772;2023-01-29T07:34:13;61260.63;;;-144.06;60.63
11017;BME280;54687;50.800;6.772;2023-01-29T07:36:40;61218.69;;;-144.06;59.89
11017;BME280;54687;50.800;6.772;2023-01-29T07:39:07;61222.88;;;-144.06;59.90
11017;BME280;54687;50.800;6.772;2023-01-29T07:41:33;61279.47;;;-144.06;59.41
11017;BME280;54687;50.800;6.772;2023-01-29T07:44:00;61231.25;;;-144.06;59.11
11017;BME280;54687;50.800;6.772;2023-01-29T07:46:27;61206.09;;;-144.06;59.22
11017;BME280;54687;50.800;6.772;2023-01-29T07:48:53;61195.63;;;-144.06;58.82
11017;BME280;54687;50.800;6.772;2023-01-29T07:51:20;61193.53;;;-144.06;58.20
11017;BME280;54687;50.800;6.772;2023-01-29T07:53:48;61214.50;;;-144.06;57.71
11017;BME280;54687;50.800;6.772;2023-01-29T07:56:14;61227.06;;;-144.06;57.73
11017;BME280;54687;50.800;6.772;2023-01-29T07:58:41;61193.53;;;-144.06;57.63
11017;BME280;54687;50.800;6.772;2023-01-29T08:01:07;61243.84;;;-144.06;57.52
11017;BME280;54687;50.800;6.772;2023-01-29T08:03:34;61218.69;;;-144.06;57.22
11017;BME280;54687;50.800;6.772;2023-01-29T08:06:02;61254.31;;;-144.06;57.14
11017;BME280;54687;50.800;6.772;2023-01-29T08:08:28;61216.59;;;-144.06;57.32
11017;BME280;54687;50.800;6.772;2023-01-29T08:10:59;61214.50;;;-144.06;57.24
11017;BME280;54687;50.800;6.772;2023-01-29T08:13:26;61233.38;;;-144.06;56.78
11017;BME280;54687;50.800;6.772;2023-01-29T08:15:53;61227.06;;;-144.06;56.17
11017;BME280;54687;50.800;6.772;2023-01-29T08:18:19;61220.78;;;-144.06;56.75
11017;BME280;54687;50.800;6.772;2023-01-29T08:20:46;61233.38;;;-144.06;56.09
11017;BME280;54687;50.800;6.772;2023-01-29T08:23:14;61220.78;;;-144.06;56.32
11017;BME280;54687;50.800;6.772;2023-01-29T08:25:41;61214.50;;;-144.06;55.83
11017;BME280;54687;50.800;6.772;2023-01-29T08:28:09;61189.34;;;-144.06;55.98
11017;BME280;54687;50.800;6.772;2023-01-29T08:30:36;61222.88;;;-144.06;55.98
11017;BME280;54687;50.800;6.772;2023-01-29T08:33:03;61199.81;;;-144.06;55.63
11017;BME280;54687;50.800;6.772;2023-01-29T08:35:30;61218.69;;;-144.06;56.14
11017;BME280;54687;50.800;6.772;2023-01-29T08:37:58;61273.19;;;-144.06;56.29
11017;BME280;54687;50.800;6.772;2023-01-29T08:40:25;61235.47;;;-144.06;56.35
11017;BME280;54687;50.800;6.772;2023-01-29T08:42:52;61224.97;;;-144.06;55.79
11017;BME280;54687;50.800;6.772;2023-01-29T08:45:24;61187.25;;;-144.06;56.04
11017;BME280;54687;50.800;6.772;2023-01-29T08:47:50;61214.50;;;-144.06;55.81
11017;BME280;54687;50.800;6.772;2023-01-29T08:50:17;61227.06;;;-144.06;55.95
11017;BME280;54687;50.800;6.772;2023-01-29T08:52:44;61231.25;;;-144.06;56.07
11017;BME280;54687;50.800;6.772;2023-01-29T08:55:11;61210.31;;;-144.06;56.05
11017;BME280;54687;50.800;6.772;2023-01-29T08:57:38;61231.25;;;-144.06;56.04
11017;BME280;54687;50.800;6.772;2023-01-29T09:00:07;61218.69;;;-144.06;55.94
11017;BME280;54687;50.800;6.772;2023-01-29T09:02:36;61189.34;;;-144.06;55.54
11017;BME280;54687;50.800;6.772;2023-01-29T09:05:03;61250.13;;;-144.06;55.89
11017;BME280;54687;50.800;6.772;2023-01-29T09:07:30;61201.91;;;-144.06;55.94
11017;BME280;54687;50.800;6.772;2023-01-29T09:09:57;61250.13;;;-144.06;55.99
11017;BME280;54687;50.800;6.772;2023-01-29T09:12:24;61187.25;;;-144.06;56.29
11017;BME280;54687;50.800;6.772;2023-01-29T09:14:50;61201.91;;;-144.06;56.18
11017;BME280;54687;50.800;6.772;2023-01-29T09:17:17;61197.72;;;-144.06;56.04
11017;BME280;54687;50.800;6.772;2023-01-29T09:19:45;61168.38;;;-144.06;56.29
11017;BME280;54687;50.800;6.772;2023-01-29T09:22:11;61189.34;;;-144.06;56.49
11017;BME280;54687;50.800;6.772;2023-01-29T09:24:38;61216.59;;;-144.06;56.48
11017;BME280;54687;50.800;6.772;2023-01-29T09:27:05;61216.59;;;-144.06;56.33
11017;BME280;54687;50.800;6.772;2023-01-29T09:29:31;61204.00;;;-144.06;56.36
11017;BME280;54687;50.800;6.772;2023-01-29T09:31:58;61172.56;;;-144.06;56.22
11017;BME280;54687;50.800;6.772;2023-01-29T09:34:24;61208.22;;;-144.06;55.66
11017;BME280;54687;50.800;6.772;2023-01-29T09:36:52;61222.88;;;-144.06;55.39
11017;BME280;54687;50.800;6.772;2023-01-29T09:39:19;61227.06;;;-144.06;54.51
11017;BME280;54687;50.800;6.772;2023-01-29T09:41:52;61210.31;;;-144.06;54.47
11017;BME280;54687;50.800;6.772;2023-01-29T09:44:29;61210.31;;;-144.06;54.53
11017;BME280;54687;50.800;6.772;2023-01-29T09:47:01;61222.88;;;-144.06;54.58
11017;BME280;54687;50.800;6.772;2023-01-29T09:49:34;61197.72;;;-144.06;54.42
11017;BME280;54687;50.800;6.772;2023-01-29T09:52:10;61195.63;;;-144.06;54.31
11017;BME280;54687;50.800;6.772;2023-01-29T09:54:47;61197.72;;;-144.06;53.88
11017;BME280;54687;50.800;6.772;2023-01-29T09:57:21;61197.72;;;-144.06;54.20
11017;BME280;54687;50.800;6.772;2023-01-29T09:59:49;61193.53;;;-144.06;54.09
11017;BME280;54687;50.800;6.772;2023-01-29T10:02:28;61195.63;;;-144.06;53.92
11017;BME280;54687;50.800;6.772;2023-01-29T10:05:15;61248.03;;;-144.06;53.29
11017;BME280;54687;50.800;6.772;2023-01-29T10:08:12;61216.59;;;-144.06;53.44
11017;BME280;54687;50.800;6.772;2023-01-29T10:10:48;61224.97;;;-144.06;54.03
11017;BME280;54687;50.800;6.772;2023-01-29T10:13:24;61214.50;;;-144.06;53.71
11017;BME280;54687;50.800;6.772;2023-01-29T10:16:06;61218.69;;;-144.06;53.03
11017;BME280;54687;50.800;6.772;2023-01-29T10:18:53;61229.16;;;-144.06;52.72
11017;BME280;54687;50.800;6.772;2023-01-29T10:21:42;61222.88;;;-144.06;52.35
11017;BME280;54687;50.800;6.772;2023-01-29T10:24:21;61229.16;;;-144.06;52.51
11017;BME280;54687;50.800;6.772;2023-01-29T10:26:50;61195.63;;;-144.06;52.49
11017;BME280;54687;50.800;6.772;2023-01-29T10:29:18;61201.91;;;-144.06;52.82
11017;BME280;54687;50.800;6.772;2023-01-29T10:31:49;61210.31;;;-144.06;52.77
11017;BME280;54687;50.800;6.772;2023-01-29T10:34:22;61218.69;;;-144.06;51.49
11017;BME280;54687;50.800;6.772;2023-01-29T10:36:52;61231.25;;;-144.06;52.02
11017;BME280;54687;50.800;6.772;2023-01-29T10:39:22;61218.69;;;-144.06;52.07
11017;BME280;54687;50.800;6.772;2023-01-29T10:42:04;61172.56;;;-144.06;52.47
11017;BME280;54687;50.800;6.772;2023-01-29T10:44:47;61216.59;;;-144.06;51.75
11017;BME280;54687;50.800;6.772;2023-01-29T10:47:36;61180.97;;;-144.06;51.12
11017;BME280;54687;50.800;6.772;2023-01-29T10:50:16;61206.09;;;-144.06;50.84
11017;BME280;54687;50.800;6.772;2023-01-29T10:53:03;61210.31;;;-144.06;50.08
11017;BME280;54687;50.800;6.772;2023-01-29T10:55:42;61222.88;;;-144.06;50.57
11017;BME280;54687;50.800;6.772;2023-01-29T10:58:20;61199.81;;;-144.06;50.24
11017;BME280;54687;50.800;6.772;2023-01-29T11:00:48;61239.66;;;-144.06;50.19
11017;BME280;54687;50.800;6.772;2023-01-29T11:03:17;61201.91;;;-144.06;50.16
11017;BME280;54687;50.800;6.772;2023-01-29T11:05:50;61193.53;;;-144.06;49.94
11017;BME280;54687;50.800;6.772;2023-01-29T11:08:23;61231.25;;;-144.06;49.95
11017;BME280;54687;50.800;6.772;2023-01-29T11:11:01;61183.06;;;-144.06;49.48
11017;BME280;54687;50.800;6.772;2023-01-29T11:13:34;61193.53;;;-144.06;49.62
11017;BME280;54687;50.800;6.772;2023-01-29T11:16:04;61193.53;;;-144.06;49.86
11017;BME280;54687;50.800;6.772;2023-01-29T11:21:29;61210.31;;;-144.06;49.62
11017;BME280;54687;50.800;6.772;2023-01-29T11:24:08;61185.16;;;-144.06;50.17
11017;BME280;54687;50.800;6.772;2023-01-29T11:26:39;61199.81;;;-144.06;50.19
11017;BME280;54687;50.800;6.772;2023-01-29T11:29:29;61191.44;;;-144.06;50.18
11017;BME280;54687;50.800;6.772;2023-01-29T11:31:58;61166.28;;;-144.06;49.56
11017;BME280;54687;50.800;6.772;2023-01-29T11:34:26;61130.66;;;-144.06;50.38
11017;BME280;54687;50.800;6.772;2023-01-29T11:36:56;61206.09;;;-144.06;49.51
11017;BME280;54687;50.800;6.772;2023-01-29T11:39:24;61189.34;;;-144.06;49.50
11017;BME280;54687;50.800;6.772;2023-01-29T11:41:55;61180.97;;;-144.06;49.41
11017;BME280;54687;50.800;6.772;2023-01-29T11:44:28;61160.00;;;-144.06;49.34
11017;BME280;54687;50.800;6.772;2023-01-29T11:46:55;61197.72;;;-144.06;49.19
11017;BME280;54687;50.800;6.772;2023-01-29T11:49:30;61178.84;;;-144.06;49.14
11017;BME280;54687;50.800;6.772;2023-01-29T11:51:59;61170.47;;;-144.06;49.37
11017;BME280;54687;50.800;6.772;2023-01-29T11:54:31;61180.97;;;-144.06;49.40
11017;BME280;54687;50.800;6.772;2023-01-29T11:57:01;61155.81;;;-144.06;49.05
11017;BME280;54687;50.800;6.772;2023-01-29T11:59:36;61155.81;;;-144.06;49.08
11017;BME280;54687;50.800;6.772;2023-01-29T12:02:20;61124.34;;;-144.06;49.47
11017;BME280;54687;50.800;6.772;2023-01-29T12:04:48;61187.25;;;-144.06;49.17
11017;BME280;54687;50.800;6.772;2023-01-29T12:07:16;61172.56;;;-144.06;48.90
11017;BME280;54687;50.800;6.772;2023-01-29T12:09:49;61168.38;;;-144.06;48.52
11017;BME280;54687;50.800;6.772;2023-01-29T12:12:26;61168.38;;;-144.06;48.68
11017;BME280;54687;50.800;6.772;2023-01-29T12:15:03;61147.41;;;-144.06;48.13
11017;BME280;54687;50.800;6.772;2023-01-29T12:17:32;61166.28;;;-144.06;47.96
11017;BME280;54687;50.800;6.772;2023-01-29T12:20:08;61162.09;;;-144.06;47.93
11017;BME280;54687;50.800;6.772;2023-01-29T12:22:42;61195.63;;;-144.06;47.83
11017;BME280;54687;50.800;6.772;2023-01-29T12:25:19;61197.72;;;-144.06;47.62
11017;BME280;54687;50.800;6.772;2023-01-29T12:27:52;61164.19;;;-144.06;47.17
11017;BME280;54687;50.800;6.772;2023-01-29T12:33:00;61180.97;;;-144.06;47.27
11017;BME280;54687;50.800;6.772;2023-01-29T12:35:31;61176.75;;;-144.06;47.41
11017;BME280;54687;50.800;6.772;2023-01-29T12:38:01;61183.06;;;-144.06;47.43
11017;BME280;54687;50.800;6.772;2023-01-29T12:40:32;61201.91;;;-144.06;47.46
11017;BME280;54687;50.800;6.772;2023-01-29T12:43:09;61168.38;;;-144.06;47.92
11017;BME280;54687;50.800;6.772;2023-01-29T12:45:38;61218.69;;;-144.06;47.75
11017;BME280;54687;50.800;6.772;2023-01-29T12:48:08;61195.63;;;-144.06;47.79
11017;BME280;54687;50.800;6.772;2023-01-29T12:50:37;61166.28;;;-144.06;48.03
11017;BME280;54687;50.800;6.772;2023-01-29T12:53:06;61166.28;;;-144.06;48.11
11017;BME280;54687;50.800;6.772;2023-01-29T12:55:42;61180.97;;;-144.06;48.09
11017;BME280;54687;50.800;6.772;2023-01-29T12:58:13;61136.94;;;-144.06;48.51
11017;BME280;54687;50.800;6.772;2023-01-29T13:00:43;61172.56;;;-144.06;48.81
11017;BME280;54687;50.800;6.772;2023-01-29T13:03:16;61168.38;;;-144.06;48.92
11017;BME280;54687;50.800;6.772;2023-01-29T13:05:46;61229.16;;;-144.06;48.65